Time;durP1;ratioP1;P1;durP2;ratioP2;P2;SDS_P1;SDS_P2;PMS_P1;PMS_P2;Temp;Humidity;BMP_temperature;BMP_pressure;BME280_temperature;BME280_humidity;BME280_pressure;Samples;Min_cycle;Max_cycle;Signal;HPM_P1;HPM_P2
2023/03/28 00:01:02;;;;;;;23.88;14.80;;;1.90;82.30;;;;;;5002791;28;20495;-74
2023/03/28 00:03:28;;;;;;;24.73;15.38;;;1.90;82.50;;;;;;5005025;28;20314;-73
2023/03/28 00:06:01;;;;;;;24.45;16.05;;;1.90;82.40;;;;;;5003464;28;20120;-74
2023/03/28 00:08:27;;;;;;;22.70;15.93;;;1.90;82.40;;;;;;5000265;28;20395;-74
2023/03/28 00:11:09;;;;;;;30.60;18.65;;;1.90;82.40;;;;;;5004169;28;20048;-74
2023/03/28 00:13:35;;;;;;;26.85;17.80;;;1.90;82.50;;;;;;4994922;28;20117;-73
2023/03/28 00:16:09;;;;;;;30.90;19.00;;;1.80;82.50;;;;;;5003382;28;20056;-75
2023/03/28 00:18:38;;;;;;;27.05;17.55;;;1.90;82.60;;;;;;5009410;28;20029;-75
2023/03/28 00:21:06;;;;;;;28.83;17.05;;;1.80;82.60;;;;;;5002850;28;20294;-75
2023/03/28 00:23:34;;;;;;;34.08;21.08;;;1.80;82.50;;;;;;5002029;28;20234;-75
2023/03/28 00:26:12;;;;;;;25.27;16.95;;;1.80;82.70;;;;;;5003455;28;20026;-74
2023/03/28 00:28:38;;;;;;;25.67;15.57;;;1.80;82.70;;;;;;5000490;28;20026;-75
2023/03/28 00:31:07;;;;;;;22.30;13.80;;;1.80;82.50;;;;;;4997110;28;20049;-74
2023/03/28 00:33:33;;;;;;;25.40;14.68;;;1.70;82.60;;;;;;5001198;28;20475;-74
2023/03/28 00:35:59;;;;;;;22.42;14.30;;;1.70;82.60;;;;;;5001539;28;20037;-75
2023/03/28 00:38:26;;;;;;;23.85;14.07;;;1.70;82.50;;;;;;5000805;28;20049;-74
2023/03/28 00:40:54;;;;;;;23.02;14.05;;;1.70;82.40;;;;;;4999434;28;20699;-75
2023/03/28 00:43:38;;;;;;;19.35;12.75;;;1.60;82.20;;;;;;5004001;28;20037;-74
2023/03/28 00:46:12;;;;;;;20.35;12.75;;;1.60;82.40;;;;;;4999853;28;20046;-75
2023/03/28 00:48:43;;;;;;;20.47;12.97;;;1.60;82.60;;;;;;5021872;28;20036;-74
2023/03/28 00:51:09;;;;;;;19.75;11.80;;;1.50;82.70;;;;;;5019462;28;20406;-74
2023/03/28 00:53:36;;;;;;;18.42;11.50;;;1.50;82.80;;;;;;5018653;28;20497;-75
2023/03/28 00:56:07;;;;;;;20.05;11.68;;;1.50;82.80;;;;;;5018101;28;20130;-75
2023/03/28 00:58:37;;;;;;;18.00;12.85;;;1.50;83.00;;;;;;5025902;28;20037;-74
2023/03/28 01:01:03;;;;;;;21.58;14.27;;;1.50;83.30;;;;;;5003611;28;20413;-75
2023/03/28 01:03:33;;;;;;;21.30;13.88;;;1.60;83.30;;;;;;5019199;28;20155;-75
2023/03/28 01:06:03;;;;;;;19.58;14.18;;;1.60;83.50;;;;;;5022940;28;20040;-75
2023/03/28 01:08:32;;;;;;;20.23;12.77;;;1.60;83.40;;;;;;5016820;28;20221;-74
2023/03/28 01:10:58;;;;;;;22.10;12.45;;;1.60;83.40;;;;;;5020620;28;20446;-74
2023/03/28 01:13:28;;;;;;;21.25;12.02;;;1.60;83.40;;;;;;5018131;28;20033;-74
2023/03/28 01:15:54;;;;;;;19.00;12.50;;;1.60;83.40;;;;;;5020930;28;20039;-74
2023/03/28 01:18:22;;;;;;;17.00;11.32;;;1.60;83.40;;;;;;5023383;28;20539;-74
2023/03/28 01:21:02;;;;;;;18.02;12.23;;;1.60;83.50;;;;;;5018952;28;20029;-74
2023/03/28 01:23:50;;;;;;;16.95;11.80;;;1.60;83.50;;;;;;5024641;28;20101;-74
2023/03/28 01:26:45;;;;;;;20.67;13.15;;;1.50;83.50;;;;;;5016514;28;20119;-75
2023/03/28 01:29:30;;;;;;;19.73;12.27;;;1.60;83.70;;;;;;5018854;28;20548;-76
2023/03/28 01:31:55;;;;;;;;;;;1.50;83.70;;;;;;5018457;28;20651;-75
2023/03/28 01:34:40;;;;;;;20.90;12.60;;;1.60;83.80;;;;;;5023845;28;19936;-74
2023/03/28 01:37:31;;;;;;;19.00;12.77;;;1.50;83.70;;;;;;5020495;28;20042;-75
2023/03/28 01:40:11;;;;;;;19.13;12.82;;;1.50;83.70;;;;;;5022257;28;20033;-73
2023/03/28 01:43:11;;;;;;;21.90;12.90;;;1.40;83.70;;;;;;5020348;28;20217;-74
2023/03/28 01:46:38;;;;;;;19.55;13.43;;;1.40;83.70;;;;;;5018766;28;20482;-74
2023/03/28 01:49:27;;;;;;;18.02;12.32;;;1.50;83.80;;;;;;4999718;28;20134;-75
2023/03/28 01:52:04;;;;;;;21.23;12.93;;;1.40;83.90;;;;;;5027817;28;20041;-75
2023/03/28 01:54:50;;;;;;;18.73;12.80;;;1.40;83.90;;;;;;5023286;28;20104;-74
2023/03/28 01:57:48;;;;;;;22.90;13.05;;;1.40;83.90;;;;;;5018665;28;20045;-75
2023/03/28 02:00:36;;;;;;;27.20;13.57;;;1.30;83.90;;;;;;5019795;28;20045;-75
2023/03/28 02:03:04;;;;;;;23.33;13.43;;;1.30;84.00;;;;;;5018834;28;20030;-75
2023/03/28 02:05:33;;;;;;;21.95;13.27;;;1.40;84.10;;;;;;5020831;28;20079;-75
2023/03/28 02:08:02;;;;;;;21.77;12.63;;;1.40;84.10;;;;;;5016651;28;20029;-75
2023/03/28 02:10:31;;;;;;;24.52;12.85;;;1.50;84.20;;;;;;5020620;28;20025;-74
2023/03/28 02:13:01;;;;;;;20.80;11.73;;;1.50;84.20;;;;;;5015838;28;20075;-74
2023/03/28 02:15:28;;;;;;;21.58;12.15;;;1.50;84.20;;;;;;5021310;28;20025;-75
2023/03/28 02:18:01;;;;;;;23.98;12.68;;;1.40;84.20;;;;;;5019264;28;20054;-75
2023/03/28 02:20:30;;;;;;;19.52;12.52;;;1.50;84.40;;;;;;5015127;28;20069;-75
2023/03/28 02:23:07;;;;;;;20.92;13.07;;;1.50;84.30;;;;;;5020300;28;20141;-74
2023/03/28 02:25:35;;;;;;;19.42;12.15;;;1.50;84.30;;;;;;5020928;28;20386;-74
2023/03/28 02:28:04;;;;;;;20.13;12.23;;;1.50;84.30;;;;;;5019214;28;20032;-75
2023/03/28 02:30:30;;;;;;;20.23;13.55;;;1.40;84.30;;;;;;5016658;28;20121;-75
2023/03/28 02:33:07;;;;;;;22.58;13.10;;;1.40;84.30;;;;;;5011408;28;20030;-74
2023/03/28 02:35:50;;;;;;;21.40;12.98;;;1.40;84.40;;;;;;5018950;28;20121;-74
2023/03/28 02:38:47;;;;;;;22.75;11.90;;;1.40;84.50;;;;;;5019134;28;20045;-74
2023/03/28 02:41:33;;;;;;;23.15;13.02;;;1.40;84.40;;;;;;5015746;28;20034;-74
2023/03/28 02:44:20;;;;;;;20.08;12.27;;;1.40;84.50;;;;;;5018724;28;20276;-74
2023/03/28 02:47:04;;;;;;;20.83;12.65;;;1.40;84.50;;;;;;5016446;28;20429;-75
2023/03/28 02:49:54;;;;;;;22.58;13.90;;;1.50;84.40;;;;;;5016380;28;20034;-74
2023/03/28 02:52:35;;;;;;;21.88;13.85;;;1.40;84.60;;;;;;5020693;28;20029;-74
2023/03/28 02:55:11;;;;;;;25.00;12.57;;;1.40;84.50;;;;;;5020037;28;20027;-74
2023/03/28 02:57:52;;;;;;;23.30;13.23;;;1.40;84.60;;;;;;5019978;28;20371;-74
2023/03/28 03:00:19;;;;;;;22.20;12.57;;;1.40;84.60;;;;;;5033200;28;20511;-74
2023/03/28 03:02:50;;;;;;;25.77;13.60;;;1.40;84.60;;;;;;5000851;28;20046;-74
2023/03/28 03:05:20;;;;;;;25.77;13.23;;;1.40;84.70;;;;;;5021520;28;20014;-73
2023/03/28 03:07:48;;;;;;;22.33;13.43;;;1.40;84.70;;;;;;5019382;28;20120;-74
2023/03/28 03:10:14;;;;;;;23.00;12.15;;;1.40;84.70;;;;;;5016006;28;20045;-74
2023/03/28 03:12:40;;;;;;;20.85;12.48;;;1.40;84.70;;;;;;5020285;28;20032;-74
2023/03/28 03:15:06;;;;;;;24.95;13.98;;;1.40;84.70;;;;;;5018793;28;20029;-73
2023/03/28 03:17:32;;;;;;;24.02;12.35;;;1.40;84.70;;;;;;5031913;28;20402;-74
2023/03/28 03:19:58;;;;;;;21.65;11.82;;;1.40;84.80;;;;;;5021054;28;20110;-74
2023/03/28 03:22:24;;;;;;;20.75;11.88;;;1.40;84.70;;;;;;5018761;28;20540;-74
2023/03/28 03:24:50;;;;;;;20.15;12.60;;;1.40;84.70;;;;;;5022032;28;20033;-74
2023/03/28 03:27:17;;;;;;;20.15;12.13;;;1.40;84.70;;;;;;5023870;28;20397;-74
2023/03/28 03:29:43;;;;;;;19.90;12.15;;;1.40;84.70;;;;;;5022829;28;20110;-73
2023/03/28 03:32:09;;;;;;;19.92;12.73;;;1.40;84.70;;;;;;5022100;28;20619;-75
2023/03/28 03:34:35;;;;;;;21.30;12.25;;;1.30;84.70;;;;;;5018329;28;20509;-75
2023/03/28 03:37:03;;;;;;;20.38;12.02;;;1.30;84.80;;;;;;5021597;28;20041;-75
2023/03/28 03:39:29;;;;;;;22.80;12.82;;;1.20;84.80;;;;;;5021873;28;20036;-75
2023/03/28 03:41:55;;;;;;;19.90;12.07;;;1.20;84.90;;;;;;5024650;28;20030;-75
2023/03/28 03:44:21;;;;;;;19.73;11.95;;;1.20;84.80;;;;;;5020553;28;20140;-75
2023/03/28 03:46:47;;;;;;;18.90;10.95;;;1.20;84.90;;;;;;5023144;28;20042;-75
2023/03/28 03:49:13;;;;;;;22.00;11.55;;;1.20;84.90;;;;;;5023918;28;20037;-75
2023/03/28 03:51:38;;;;;;;17.83;11.30;;;1.20;85.00;;;;;;5022986;28;20036;-75
2023/03/28 03:54:05;;;;;;;19.42;11.38;;;1.20;84.90;;;;;;5022573;28;20065;-75
2023/03/28 03:56:31;;;;;;;18.80;11.05;;;1.20;84.80;;;;;;5018523;28;20103;-74
2023/03/28 03:58:57;;;;;;;18.70;11.95;;;1.20;84.80;;;;;;5024559;28;20478;-74
2023/03/28 04:01:24;;;;;;;21.98;12.15;;;1.20;84.80;;;;;;5022215;28;20041;-75
2023/03/28 04:03:50;;;;;;;22.00;12.25;;;1.20;84.80;;;;;;5023372;28;20298;-75
2023/03/28 04:06:17;;;;;;;20.38;11.55;;;1.20;84.80;;;;;;5021973;28;20409;-74
2023/03/28 04:08:43;;;;;;;20.42;11.05;;;1.20;84.80;;;;;;5022280;28;20025;-75
2023/03/28 04:11:09;;;;;;;17.27;11.00;;;1.10;84.80;;;;;;5021078;28;20042;-75
2023/03/28 04:13:35;;;;;;;20.38;11.13;;;1.10;84.70;;;;;;5023201;28;20397;-74
2023/03/28 04:16:01;;;;;;;14.65;10.23;;;1.10;84.70;;;;;;5022734;28;20063;-75
2023/03/28 04:18:28;;;;;;;18.95;10.98;;;1.10;84.60;;;;;;5021533;28;20065;-75
2023/03/28 04:20:56;;;;;;;19.58;10.55;;;1.10;84.60;;;;;;5021198;28;20040;-74
2023/03/28 04:23:25;;;;;;;16.88;9.57;;;1.10;84.60;;;;;;5022749;28;20144;-76
2023/03/28 04:25:56;;;;;;;17.27;10.15;;;1.10;84.70;;;;;;5019818;28;20413;-74
2023/03/28 04:28:26;;;;;;;21.83;10.82;;;1.10;84.80;;;;;;5038546;28;20033;-76
2023/03/28 04:30:56;;;;;;;20.77;10.75;;;1.10;84.80;;;;;;5023649;28;20021;-75
2023/03/28 04:33:24;;;;;;;17.42;10.77;;;1.10;84.80;;;;;;5018495;28;20034;-74
2023/03/28 04:36:00;;;;;;;17.75;11.68;;;1.10;84.90;;;;;;5003368;28;20022;-74
2023/03/28 04:38:28;;;;;;;19.73;10.75;;;1.20;84.90;;;;;;5023296;28;20453;-73
2023/03/28 04:40:56;;;;;;;19.95;12.68;;;1.20;84.90;;;;;;5016304;28;20033;-74
2023/03/28 04:43:26;;;;;;;20.00;11.45;;;1.20;84.90;;;;;;5010301;28;20022;-74
2023/03/28 04:45:55;;;;;;;19.23;10.57;;;1.20;84.90;;;;;;5008795;28;20018;-75
2023/03/28 04:48:22;;;;;;;19.90;11.63;;;1.20;84.90;;;;;;5013417;28;20041;-74
2023/03/28 04:50:48;;;;;;;19.13;10.82;;;1.20;84.90;;;;;;5010308;28;20108;-74
2023/03/28 04:53:16;;;;;;;21.25;12.05;;;1.20;84.90;;;;;;5008647;28;20117;-74
2023/03/28 04:55:48;;;;;;;19.80;11.32;;;1.30;84.90;;;;;;5012165;28;20080;-75
2023/03/28 04:58:18;;;;;;;21.98;12.18;;;1.20;84.90;;;;;;5017854;28;20112;-74
2023/03/28 05:00:44;;;;;;;18.52;11.68;;;1.20;84.90;;;;;;5029149;28;20733;-74
2023/03/28 05:03:17;;;;;;;20.63;12.13;;;1.30;84.90;;;;;;5021186;28;20370;-74
2023/03/28 05:05:44;;;;;;;25.58;12.27;;;1.30;84.90;;;;;;5025586;28;20172;-75
2023/03/28 05:08:11;;;;;;;24.90;10.73;;;1.30;84.80;;;;;;5027087;28;20773;-75
2023/03/28 05:10:38;;;;;;;18.75;11.15;;;1.30;84.60;;;;;;5024076;28;20932;-74
2023/03/28 05:13:03;;;;;;;20.25;10.13;;;1.30;84.60;;;;;;5032787;28;20189;-75
2023/03/28 05:15:30;;;;;;;22.30;9.73;;;1.40;84.70;;;;;;5029398;28;20026;-74
2023/03/28 05:17:56;;;;;;;20.52;9.30;;;1.40;84.70;;;;;;5021755;28;20473;-74
2023/03/28 05:20:21;;;;;;;20.40;9.05;;;1.40;84.70;;;;;;5029036;28;20034;-75
2023/03/28 05:22:47;;;;;;;23.00;10.82;;;1.50;84.60;;;;;;5013381;28;20052;-74
2023/03/28 05:25:13;;;;;;;17.60;9.18;;;1.60;84.50;;;;;;5020935;28;20029;-73
2023/03/28 05:27:39;;;;;;;25.80;9.80;;;1.60;84.50;;;;;;5025607;28;20041;-74
2023/03/28 05:30:06;;;;;;;18.10;8.75;;;1.60;84.40;;;;;;5024510;28;20068;-74
2023/03/28 05:32:32;;;;;;;16.92;9.20;;;1.70;84.40;;;;;;5029733;28;20508;-74
2023/03/28 05:34:58;;;;;;;19.92;8.82;;;1.70;84.20;;;;;;5025887;28;20136;-74
2023/03/28 05:37:23;;;;;;;21.90;9.63;;;1.80;84.20;;;;;;5018706;28;20045;-74
2023/03/28 05:39:49;;;;;;;19.20;8.57;;;1.90;84.10;;;;;;5024054;28;20036;-74
2023/03/28 05:42:15;;;;;;;26.08;9.75;;;1.90;84.00;;;;;;5025404;28;20025;-75
2023/03/28 05:44:41;;;;;;;24.00;9.10;;;2.00;83.80;;;;;;5025384;28;20058;-74
2023/03/28 05:47:06;;;;;;;20.58;7.85;;;2.10;83.50;;;;;;5028963;28;20281;-74
2023/03/28 05:49:32;;;;;;;24.17;8.35;;;2.10;83.30;;;;;;5020515;28;20493;-74
2023/03/28 05:51:58;;;;;;;15.88;7.78;;;2.10;83.10;;;;;;5023567;28;20046;-74
2023/03/28 05:54:23;;;;;;;16.48;8.50;;;2.20;82.80;;;;;;5029146;28;20041;-75
2023/03/28 05:56:49;;;;;;;20.80;7.90;;;2.40;82.40;;;;;;5038015;28;20438;-74
2023/03/28 05:59:17;;;;;;;18.75;7.90;;;2.40;82.10;;;;;;5030047;28;20033;-74
2023/03/28 06:01:45;;;;;;;18.33;8.30;;;2.40;82.00;;;;;;5026819;28;20235;-74
2023/03/28 06:04:11;;;;;;;22.67;9.40;;;2.50;81.70;;;;;;5023709;28;20030;-74
2023/03/28 06:06:37;;;;;;;19.25;8.50;;;2.50;81.50;;;;;;5026493;28;20056;-74
2023/03/28 06:09:03;;;;;;;24.42;9.70;;;2.60;81.30;;;;;;5003000;28;20036;-74
2023/03/28 06:11:29;;;;;;;24.05;10.02;;;2.60;81.20;;;;;;5022414;28;20115;-74
2023/03/28 06:13:55;;;;;;;17.83;8.90;;;2.60;80.80;;;;;;5022621;28;20056;-74
2023/03/28 06:16:20;;;;;;;28.85;9.50;;;2.60;80.60;;;;;;5024245;28;20728;-73
2023/03/28 06:18:46;;;;;;;25.73;8.85;;;2.60;80.20;;;;;;5021424;28;20021;-73
2023/03/28 06:21:12;;;;;;;21.02;8.20;;;2.70;80.50;;;;;;5026607;28;20107;-74
2023/03/28 06:23:38;;;;;;;18.27;7.70;;;2.80;80.20;;;;;;5029950;28;20026;-75
2023/03/28 06:26:04;;;;;;;15.43;8.00;;;2.90;79.70;;;;;;5026436;28;20041;-75
2023/03/28 06:28:29;;;;;;;18.00;8.32;;;3.00;79.40;;;;;;5023315;28;20087;-75
2023/03/28 06:30:55;;;;;;;19.23;7.65;;;3.00;79.20;;;;;;5027641;28;20044;-74
2023/03/28 06:33:21;;;;;;;19.27;7.57;;;3.10;78.60;;;;;;5017297;28;20034;-74
2023/03/28 06:35:47;;;;;;;18.95;8.65;;;3.20;78.40;;;;;;5023406;28;20029;-76
2023/03/28 06:38:12;;;;;;;17.27;8.10;;;3.20;78.00;;;;;;5021154;28;20029;-73
2023/03/28 06:40:38;;;;;;;16.27;8.88;;;3.30;77.90;;;;;;5022754;28;20550;-75
2023/03/28 06:43:04;;;;;;;15.73;8.15;;;3.40;78.00;;;;;;5021852;28;20068;-75
2023/03/28 06:45:29;;;;;;;15.48;8.02;;;3.40;78.00;;;;;;5027061;28;20033;-78
2023/03/28 06:47:55;;;;;;;19.08;8.38;;;3.40;77.70;;;;;;5035880;28;20203;-81
2023/03/28 06:50:21;;;;;;;20.70;8.48;;;3.50;77.50;;;;;;5025084;28;20644;-75
2023/03/28 06:52:46;;;;;;;15.65;8.10;;;3.60;77.70;;;;;;5028792;28;20025;-79
2023/03/28 06:55:12;;;;;;;19.40;7.90;;;3.60;77.00;;;;;;5027516;28;20029;-79
2023/03/28 06:57:38;;;;;;;16.00;7.70;;;3.60;76.80;;;;;;5028698;28;20670;-76
2023/03/28 07:00:06;;;;;;;14.32;7.88;;;3.70;77.00;;;;;;5032964;28;20461;-79
2023/03/28 07:02:31;;;;;;;19.55;7.47;;;3.80;76.60;;;;;;5024290;28;20087;-79
2023/03/28 07:04:57;;;;;;;17.05;7.43;;;3.90;76.60;;;;;;5030403;28;20491;-79
2023/03/28 07:07:23;;;;;;;16.27;7.95;;;3.90;76.00;;;;;;5030629;28;20120;-79
2023/03/28 07:09:51;;;;;;;18.35;8.10;;;4.00;75.30;;;;;;5026259;28;20485;-75
2023/03/28 07:12:17;;;;;;;17.30;8.25;;;3.90;75.30;;;;;;5032684;28;20039;-77
2023/03/28 07:14:43;;;;;;;19.10;8.80;;;3.90;75.40;;;;;;5029509;28;20477;-76
2023/03/28 07:17:10;;;;;;;17.52;8.02;;;4.00;75.20;;;;;;5018342;28;20044;-74
2023/03/28 07:19:36;;;;;;;19.10;8.68;;;4.10;75.20;;;;;;5027127;28;20030;-76
2023/03/28 07:22:02;;;;;;;18.10;8.38;;;4.10;75.20;;;;;;5025451;28;20064;-77
2023/03/28 07:24:28;;;;;;;14.75;7.35;;;4.10;74.80;;;;;;5027071;28;20029;-74
2023/03/28 07:26:54;;;;;;;19.48;8.13;;;4.20;75.20;;;;;;5031588;28;20041;-79
2023/03/28 07:29:20;;;;;;;21.33;8.23;;;4.20;74.40;;;;;;5023474;28;20029;-77
2023/03/28 07:31:46;;;;;;;20.40;9.20;;;4.20;74.60;;;;;;5009738;28;20041;-79
2023/03/28 07:34:11;;;;;;;22.13;9.43;;;4.30;74.80;;;;;;5013430;28;20037;-77
2023/03/28 07:36:38;;;;;;;20.45;8.15;;;4.30;74.70;;;;;;5023344;28;20029;-76
2023/03/28 07:39:04;;;;;;;16.80;8.07;;;4.30;74.20;;;;;;5027506;28;20029;-78
2023/03/28 07:41:30;;;;;;;17.25;8.60;;;4.40;74.20;;;;;;5026175;28;20040;-75
2023/03/28 07:43:56;;;;;;;17.70;8.00;;;4.40;74.40;;;;;;5027648;28;20024;-74
2023/03/28 07:46:23;;;;;;;18.77;7.70;;;4.50;74.60;;;;;;5025490;28;20049;-76
2023/03/28 07:48:48;;;;;;;19.00;7.85;;;4.50;74.70;;;;;;5023726;28;20017;-77
2023/03/28 07:51:14;;;;;;;20.73;7.18;;;4.40;74.50;;;;;;5024121;28;20033;-78
2023/03/28 07:53:40;;;;;;;16.30;6.78;;;4.50;74.40;;;;;;5024966;28;20507;-74
2023/03/28 07:56:11;;;;;;;16.77;6.53;;;4.40;74.20;;;;;;5029675;28;20486;-76
2023/03/28 07:58:40;;;;;;;17.70;7.18;;;4.40;74.20;;;;;;5031900;28;20026;-78
2023/03/28 08:01:08;;;;;;;18.20;6.78;;;4.40;74.50;;;;;;5029443;28;20037;-75
2023/03/28 08:03:35;;;;;;;16.63;7.00;;;4.40;74.40;;;;;;5008776;28;20432;-77
2023/03/28 08:06:05;;;;;;;14.35;6.72;;;4.50;74.60;;;;;;5030368;28;20036;-75
2023/03/28 08:08:31;;;;;;;16.75;6.25;;;4.60;74.50;;;;;;5016469;28;20617;-75
2023/03/28 08:10:57;;;;;;;15.18;6.60;;;4.60;74.60;;;;;;5030808;28;20293;-76
2023/03/28 08:13:24;;;;;;;13.35;6.50;;;4.70;74.10;;;;;;5026708;28;20446;-78
2023/03/28 08:15:55;;;;;;;15.45;5.53;;;4.80;73.70;;;;;;5029819;28;20037;-75
2023/03/28 08:18:23;;;;;;;17.15;6.20;;;4.90;73.50;;;;;;5038652;28;20577;-74
2023/03/28 08:20:55;;;;;;;12.55;5.78;;;5.10;72.60;;;;;;5022324;28;20075;-79
2023/03/28 08:23:21;;;;;;;13.85;5.25;;;5.30;72.40;;;;;;5031508;28;20021;-75
2023/03/28 08:25:46;;;;;;;15.00;6.13;;;5.70;72.10;;;;;;5032341;28;20033;-77
2023/03/28 08:28:12;;;;;;;11.05;5.70;;;5.90;70.80;;;;;;5033004;28;20032;-76
2023/03/28 08:30:38;;;;;;;11.10;4.60;;;6.10;70.10;;;;;;5032072;28;20500;-74
2023/03/28 08:33:04;;;;;;;14.02;5.32;;;6.20;70.00;;;;;;5031703;28;20059;-82
2023/03/28 08:35:33;;;;;;;17.25;5.68;;;6.30;69.50;;;;;;5045651;28;20059;-82
2023/03/28 08:37:59;;;;;;;9.73;5.30;;;6.40;69.50;;;;;;5047932;28;20378;-79
2023/03/28 08:40:27;;;;;;;15.63;5.38;;;6.50;68.60;;;;;;5048213;28;20025;-81
2023/03/28 08:43:02;;;;;;;17.30;5.45;;;6.60;68.80;;;;;;5041717;28;20099;-79
2023/03/28 08:45:52;;;;;;;13.93;5.63;;;6.50;67.60;;;;;;5041460;28;20040;-81
2023/03/28 08:48:38;;;;;;;12.90;5.25;;;6.50;67.80;;;;;;5034460;28;20049;-80
2023/03/28 08:51:30;;;;;;;13.48;5.75;;;6.60;68.40;;;;;;5050042;28;20041;-81
2023/03/28 08:54:13;;;;;;;11.50;5.28;;;6.80;68.40;;;;;;5037605;28;20013;-83
2023/03/28 08:56:43;;;;;;;10.63;4.53;;;6.90;67.90;;;;;;5033215;28;20045;-80
2023/03/28 08:59:15;;;;;;;11.55;5.22;;;7.00;67.10;;;;;;5034295;28;20037;-82
2023/03/28 09:01:42;;;;;;;14.05;4.70;;;7.00;67.10;;;;;;5038698;28;20041;-79
2023/03/28 09:04:33;;;;;;;12.60;4.50;;;7.00;67.00;;;;;;5021269;28;20097;-78
2023/03/28 09:07:12;;;;;;;11.80;5.03;;;7.20;66.80;;;;;;5028362;28;20044;-83
2023/03/28 09:10:00;;;;;;;8.90;4.60;;;7.60;67.10;;;;;;5025337;28;20513;-79
2023/03/28 09:12:39;;;;;;;11.50;4.70;;;7.90;65.70;;;;;;5033191;28;20520;-80
2023/03/28 09:15:25;;;;;;;10.05;4.28;;;7.90;63.90;;;;;;5036512;28;20134;-80
2023/03/28 09:18:06;;;;;;;11.10;4.63;;;7.80;64.70;;;;;;5026654;28;20452;-76
2023/03/28 09:20:48;;;;;;;14.82;5.13;;;7.70;64.80;;;;;;5033715;28;20082;-81
2023/03/28 09:23:39;;;;;;;16.00;4.97;;;7.50;65.50;;;;;;5027514;28;20092;-80
2023/03/28 09:26:16;;;;;;;12.23;4.70;;;7.50;66.10;;;;;;5039556;28;20200;-79
2023/03/28 09:28:54;;;;;;;12.40;4.47;;;7.60;65.70;;;;;;5034256;28;20026;-82
2023/03/28 09:31:26;;;;;;;12.05;3.80;;;7.80;64.80;;;;;;5019088;28;20042;-78
2023/03/28 09:33:57;;;;;;;9.82;3.90;;;7.80;64.40;;;;;;5030371;28;20118;-85
2023/03/28 09:36:27;;;;;;;12.68;4.57;;;7.80;63.40;;;;;;5033760;28;20096;-79
2023/03/28 09:39:04;;;;;;;10.77;4.55;;;7.70;63.90;;;;;;5031930;28;20469;-82
2023/03/28 09:41:53;;;;;;;13.45;5.72;;;7.70;63.90;;;;;;5029865;28;20025;-82
2023/03/28 09:44:30;;;;;;;17.33;5.97;;;7.80;64.50;;;;;;5035190;28;20045;-80
2023/03/28 09:46:58;;;;;;;11.13;4.68;;;7.90;64.20;;;;;;5033046;28;20041;-74
2023/03/28 09:49:25;;;;;;;10.65;4.32;;;8.00;64.30;;;;;;5026479;28;20025;-77
2023/03/28 09:51:54;;;;;;;13.27;5.03;;;8.10;64.30;;;;;;5029822;28;20030;-76
2023/03/28 09:54:34;;;;;;;13.85;4.85;;;7.90;63.10;;;;;;5032784;28;20146;-79
2023/03/28 09:57:02;;;;;;;11.40;4.53;;;7.90;63.10;;;;;;5013601;28;20087;-81
2023/03/28 09:59:30;;;;;;;10.88;4.45;;;8.00;62.80;;;;;;5026725;28;20315;-79
2023/03/28 10:01:57;;;;;;;16.02;5.35;;;8.00;63.30;;;;;;5027114;28;20497;-75
2023/03/28 10:04:26;;;;;;;11.20;4.20;;;8.20;63.10;;;;;;5020516;28;20032;-77
2023/03/28 10:06:53;;;;;;;11.48;4.57;;;8.20;62.10;;;;;;5021825;28;20124;-81
2023/03/28 10:09:27;;;;;;;10.93;4.18;;;8.30;61.20;;;;;;5033296;28;20044;-80
2023/03/28 10:11:58;;;;;;;13.43;5.00;;;8.30;61.10;;;;;;5033004;28;20489;-82
2023/03/28 10:14:31;;;;;;;13.23;5.10;;;8.50;61.30;;;;;;5033452;28;20021;-83
2023/03/28 10:17:20;;;;;;;11.38;3.95;;;8.60;61.20;;;;;;5024135;28;20076;-80
2023/03/28 10:19:47;;;;;;;9.30;4.53;;;8.70;60.90;;;;;;5013974;28;20551;-81
2023/03/28 10:22:15;;;;;;;11.77;4.35;;;9.00;60.50;;;;;;5029679;28;20068;-81
2023/03/28 10:24:41;;;;;;;16.33;5.20;;;9.10;60.30;;;;;;5029066;28;20532;-81
2023/03/28 10:27:11;;;;;;;9.68;4.68;;;9.10;59.40;;;;;;5016570;28;20509;-80
2023/03/28 10:29:37;;;;;;;9.90;4.80;;;9.30;59.60;;;;;;5013641;28;20029;-77
2023/03/28 10:32:04;;;;;;;12.13;4.63;;;9.40;59.20;;;;;;5028589;28;20034;-79
2023/03/28 10:34:33;;;;;;;13.52;4.70;;;9.50;58.80;;;;;;4995106;28;20022;-81
2023/03/28 10:36:58;;;;;;;12.23;5.18;;;9.50;58.30;;;;;;5012412;28;20044;-79
2023/03/28 10:39:31;;;;;;;14.90;5.47;;;9.60;59.10;;;;;;5002229;28;20670;-80
2023/03/28 10:42:01;;;;;;;14.43;4.28;;;9.80;58.70;;;;;;5012242;28;20579;-77
2023/03/28 10:44:29;;;;;;;14.55;4.70;;;9.90;57.80;;;;;;5014650;28;20030;-81
2023/03/28 10:46:57;;;;;;;10.60;4.00;;;10.10;57.90;;;;;;5028494;28;20060;-80
2023/03/28 10:49:24;;;;;;;9.05;3.95;;;10.30;57.70;;;;;;5013770;28;20069;-80
2023/03/28 10:51:50;;;;;;;11.45;4.32;;;10.40;57.60;;;;;;5015967;28;20033;-81
2023/03/28 10:54:22;;;;;;;13.20;4.32;;;10.40;57.40;;;;;;5014492;28;20032;-79
2023/03/28 10:56:57;;;;;;;12.23;4.18;;;10.30;56.30;;;;;;5014836;28;20045;-79
2023/03/28 10:59:48;;;;;;;11.38;3.65;;;10.30;55.70;;;;;;5015203;28;20022;-77
2023/03/28 11:02:38;;;;;;;13.18;4.03;;;10.30;55.90;;;;;;5011983;28;20040;-79
2023/03/28 11:05:27;;;;;;;11.13;3.78;;;10.60;56.70;;;;;;5014774;28;20438;-81
2023/03/28 11:08:01;;;;;;;9.93;3.75;;;10.70;55.70;;;;;;5009613;28;20042;-80
2023/03/28 11:10:54;;;;;;;11.52;4.88;;;10.70;54.70;;;;;;5012286;28;20040;-79
2023/03/28 11:13:52;;;;;;;9.43;3.75;;;10.60;55.20;;;;;;5011871;28;20049;-77
2023/03/28 11:16:43;;;;;;;9.18;4.25;;;10.70;55.10;;;;;;5014800;28;20536;-78
2023/03/28 11:19:31;;;;;;;9.05;3.35;;;11.10;54.40;;;;;;5013492;28;20288;-79
2023/03/28 11:22:28;;;;;;;11.10;4.10;;;11.70;54.50;;;;;;5009238;28;20053;-79
2023/03/28 11:25:21;;;;;;;7.50;3.45;;;11.50;52.90;;;;;;4997595;28;20528;-79
2023/03/28 11:27:59;;;;;;;12.20;4.03;;;11.30;53.60;;;;;;5046830;28;20041;-74
2023/03/28 11:30:33;;;;;;;13.75;3.58;;;11.40;54.10;;;;;;5024760;28;20495;-73
2023/03/28 11:33:18;;;;;;;8.60;3.70;;;11.20;54.40;;;;;;5019277;28;20243;-75
2023/03/28 11:35:50;;;;;;;10.10;3.60;;;10.90;55.20;;;;;;5025046;28;20051;-74
2023/03/28 11:38:21;;;;;;;7.03;3.67;;;11.10;55.30;;;;;;5023697;28;20041;-77
2023/03/28 11:41:10;;;;;;;11.38;3.75;;;11.00;55.20;;;;;;5023370;28;20029;-76
2023/03/28 11:43:41;;;;;;;10.60;4.03;;;11.00;56.00;;;;;;5020947;28;20160;-75
2023/03/28 11:46:18;;;;;;;11.77;3.53;;;11.10;55.80;;;;;;5023770;28;20064;-75
2023/03/28 11:48:52;;;;;;;11.35;3.80;;;10.90;56.40;;;;;;5027348;28;20108;-78
2023/03/28 11:51:27;;;;;;;9.73;4.28;;;10.90;56.90;;;;;;5007766;28;20087;-77
2023/03/28 11:54:06;;;;;;;10.23;4.18;;;10.80;56.80;;;;;;5022101;28;20045;-74
2023/03/28 11:56:45;;;;;;;10.75;4.18;;;10.80;56.90;;;;;;5026406;28;20203;-73
2023/03/28 11:59:27;;;;;;;10.18;4.15;;;10.90;56.80;;;;;;5026961;28;20034;-74
2023/03/28 12:02:02;;;;;;;8.15;4.05;;;10.80;57.50;;;;;;5025374;28;20029;-74
2023/03/28 12:04:36;;;;;;;8.73;4.00;;;10.90;57.00;;;;;;5022307;28;20029;-74
2023/03/28 12:07:33;;;;;;;8.13;3.67;;;11.00;57.30;;;;;;5019728;28;20531;-73
2023/03/28 12:10:17;;;;;;;10.60;4.63;;;11.10;57.50;;;;;;5003194;28;20025;-74
2023/03/28 12:13:12;;;;;;;10.23;3.80;;;11.20;57.00;;;;;;5018257;28;20041;-74
2023/03/28 12:15:54;;;;;;;10.48;4.03;;;11.50;57.60;;;;;;5018230;28;20050;-74
2023/03/28 12:18:45;;;;;;;8.77;3.83;;;11.60;56.40;;;;;;5021563;28;20041;-74
2023/03/28 12:21:25;;;;;;;9.02;4.13;;;11.80;56.40;;;;;;5015442;28;20490;-74
2023/03/28 12:24:04;;;;;;;14.70;4.72;;;12.00;55.70;;;;;;5020565;28;20500;-74
2023/03/28 12:26:34;;;;;;;10.88;3.58;;;12.00;55.90;;;;;;5003037;28;20049;-74
2023/03/28 12:29:14;;;;;;;7.75;3.53;;;12.10;54.70;;;;;;5020746;28;20034;-74
2023/03/28 12:31:48;;;;;;;12.70;3.85;;;12.00;54.00;;;;;;5019740;28;20049;-73
2023/03/28 12:34:48;;;;;;;7.97;3.58;;;12.00;54.30;;;;;;5025430;28;20418;-74
2023/03/28 12:37:25;;;;;;;8.60;3.92;;;12.10;54.50;;;;;;5013393;28;20038;-75
2023/03/28 12:40:23;;;;;;;8.50;3.53;;;12.20;54.20;;;;;;5019179;28;20024;-74
2023/03/28 12:42:52;;;;;;;11.85;4.68;;;12.20;54.40;;;;;;5023016;28;20026;-74
2023/03/28 12:45:37;;;;;;;8.48;3.50;;;12.10;54.40;;;;;;5023936;28;20040;-73
2023/03/28 12:48:13;;;;;;;9.13;3.63;;;12.20;54.70;;;;;;5016260;28;20057;-76
2023/03/28 12:50:42;;;;;;;11.68;4.35;;;12.10;54.70;;;;;;5008228;28;20022;-76
2023/03/28 12:53:11;;;;;;;10.82;4.57;;;12.10;54.50;;;;;;5025201;28;20052;-74
2023/03/28 12:55:42;;;;;;;10.15;4.90;;;12.10;54.60;;;;;;5020460;28;20022;-77
2023/03/28 12:58:28;;;;;;;10.88;4.20;;;12.00;55.40;;;;;;5025949;28;20062;-74
2023/03/28 13:01:05;;;;;;;6.60;4.05;;;12.00;55.50;;;;;;5021150;28;20050;-74
2023/03/28 13:04:15;;;;;;;10.50;4.35;;;11.90;55.80;;;;;;5023841;28;20032;-74
2023/03/28 13:07:07;;;;;;;8.73;4.03;;;11.80;56.00;;;;;;4936531;28;20070;-73
2023/03/28 13:09:54;;;;;;;9.18;4.50;;;11.80;56.50;;;;;;5014364;28;20388;-75